Time;durP1;ratioP1;P1;durP2;ratioP2;P2;SDS_P1;SDS_P2;PMS_P1;PMS_P2;Temp;Humidity;BMP_temperature;BMP_pressure;BME280_temperature;BME280_humidity;BME280_pressure;Samples;Min_cycle;Max_cycle;Signal;HPM_P1;HPM_P2
2022/07/29 00:00:26;;;;;;;;;4.50;4.50;;;;;21.22;75.63;101169.38;4899582;29;46573;-93
2022/07/29 00:02:52;;;;;;;;;6.00;6.00;;;;;21.20;75.99;101166.84;4918849;29;45042;-93
2022/07/29 00:05:17;;;;;;;;;7.75;4.50;;;;;21.11;76.08;101165.13;4902673;29;44804;-92
2022/07/29 00:07:49;;;;;;;;;6.50;6.50;;;;;21.12;77.67;101164.09;4908908;28;44861;-93
2022/07/29 00:16:37;;;;;;;;;9.00;6.20;;;;;20.87;80.13;101152.31;5383619;23;46363;-93
2022/07/29 00:29:52;;;;;;;;;7.80;7.80;;;;;20.63;83.35;101130.56;4929204;28;44739;-93
2022/07/29 00:32:25;;;;;;;;;6.50;5.50;;;;;20.52;84.32;101126.28;4874248;29;44794;-92
2022/07/29 00:43:44;;;;;;;;;5.75;5.75;;;;;20.34;87.05;101123.56;4946931;28;46070;-93
2022/07/29 00:46:11;;;;;;;;;10.00;7.25;;;;;20.29;85.99;101126.75;4965327;28;45204;-91
2022/07/29 00:48:47;;;;;;;;;5.40;5.40;;;;;20.27;85.83;101126.06;4936927;28;44774;-92
2022/07/29 00:51:27;;;;;;;;;7.80;6.40;;;;;20.22;85.94;101130.22;4931158;28;44625;-92
2022/07/29 00:54:12;;;;;;;;;6.75;6.75;;;;;20.17;88.07;101130.69;4933033;28;44637;-92
2022/07/29 00:56:38;;;;;;;;;5.20;5.20;;;;;20.08;87.43;101117.28;4932632;28;45268;-92
2022/07/29 00:59:27;;;;;;;;;4.00;4.00;;;;;20.03;86.74;101121.28;4943415;28;44716;-93
2022/07/29 01:01:58;;;;;;;;;5.60;5.60;;;;;20.05;86.94;101121.13;4943619;28;44795;-92
2022/07/29 01:04:43;;;;;;;;;8.00;6.25;;;;;19.99;79.43;101117.22;4942373;28;44995;-93
2022/07/29 01:07:59;;;;;;;;;7.00;5.50;;;;;19.98;86.48;101112.81;4931874;28;45001;-93
2022/07/29 01:14:08;;;;;;;;;8.20;5.60;;;;;19.99;85.37;101119.91;4937356;28;44671;-91
2022/07/29 01:16:43;;;;;;;;;7.25;7.25;;;;;19.96;86.23;101113.97;4931141;28;44958;-93
2022/07/29 01:19:41;;;;;;;;;3.60;3.60;;;;;19.97;87.26;101126.47;4930362;28;45470;-91
2022/07/29 01:22:51;;;;;;;;;5.20;5.20;;;;;19.91;88.46;101113.59;4922288;28;44771;-91
2022/07/29 01:25:44;;;;;;;;;5.00;5.00;;;;;19.93;88.45;101130.47;4895540;28;44835;-92
2022/07/29 01:28:36;;;;;;;;;6.00;6.00;;;;;19.87;89.58;101131.94;4917820;28;44846;-93
2022/07/29 01:31:04;;;;;;;;;9.40;6.40;;;;;19.81;91.12;101131.69;4935478;28;45156;-91
2022/07/29 01:33:51;;;;;;;;;6.60;6.60;;;;;19.75;91.35;101128.59;4936001;28;44664;-93
2022/07/29 01:36:36;;;;;;;;;5.20;5.20;;;;;19.72;91.21;101133.44;4937382;28;44627;-93
2022/07/29 01:39:26;;;;;;;;;5.00;4.50;;;;;19.70;92.20;101130.06;4921604;28;44938;-92
2022/07/29 01:42:09;;;;;;;;;6.00;6.00;;;;;19.63;91.34;101123.56;4915500;28;45608;-93
2022/07/29 01:44:45;;;;;;;;;8.40;6.40;;;;;19.62;91.30;101128.13;4928198;28;45390;-93
2022/07/29 01:47:15;;;;;;;;;7.60;6.40;;;;;19.65;91.82;101143.16;4914854;28;44830;-92
2022/07/29 01:49:47;;;;;;;;;5.00;5.00;;;;;19.64;91.92;101138.78;4915516;28;44869;-91
2022/07/29 01:52:36;;;;;;;;;9.40;6.80;;;;;19.61;93.31;101136.38;4933195;28;45555;-91
2022/07/29 01:55:11;;;;;;;;;6.20;6.20;;;;;19.63;92.15;101135.22;4920276;28;44570;-92
2022/07/29 01:57:39;;;;;;;;;6.80;5.00;;;;;19.63;92.29;101128.97;4907019;28;44678;-91
2022/07/29 02:00:07;;;;;;;;;5.00;5.00;;;;;19.64;92.49;101134.22;4937367;28;44824;-93
2022/07/29 02:02:35;;;;;;;;;8.50;7.00;;;;;19.64;93.53;101145.00;4935289;28;46480;-91
2022/07/29 02:05:05;;;;;;;;;5.80;4.00;;;;;19.61;92.69;101139.91;4946741;28;44632;-92
2022/07/29 02:07:34;;;;;;;;;7.20;7.20;;;;;19.58;92.96;101136.63;4931789;28;44750;-92
2022/07/29 02:10:03;;;;;;;;;7.00;7.00;;;;;19.58;93.76;101136.63;4941964;28;44880;-92
2022/07/29 02:15:53;;;;;;;;;6.20;6.20;;;;;19.54;95.14;101140.66;4942628;28;44566;-92
2022/07/29 02:18:23;;;;;;;;;8.80;6.20;;;;;19.54;95.00;101137.94;4949439;28;44694;-92
2022/07/29 02:20:56;;;;;;;;;7.75;7.00;;;;;19.52;94.60;101136.22;4918455;28;44920;-92
2022/07/29 02:23:24;;;;;;;;;8.80;7.00;;;;;19.52;95.49;101138.94;4948859;28;45221;-92
2022/07/29 02:25:55;;;;;;;;;8.00;8.00;;;;;19.49;95.35;101141.09;4917741;28;44664;-93
2022/07/29 02:28:31;;;;;;;;;9.20;7.00;;;;;19.46;95.61;101136.00;4934941;28;44721;-92
2022/07/29 02:31:02;;;;;;;;;11.50;8.50;;;;;19.42;95.82;101130.06;4925083;28;44937;-91
2022/07/29 02:33:33;;;;;;;;;8.50;7.25;;;;;19.43;95.49;101138.97;4938824;28;45389;-91
2022/07/29 02:36:00;;;;;;;;;8.20;8.20;;;;;19.39;95.34;101138.47;4934077;28;44629;-91
2022/07/29 02:41:19;;;;;;;;;7.75;6.50;;;;;19.36;96.22;101140.59;4935589;28;44598;-94
2022/07/29 02:43:51;;;;;;;;;7.20;7.20;;;;;19.33;95.96;101130.94;4932049;28;45102;-92
2022/07/29 02:46:26;;;;;;;;;8.80;6.80;;;;;19.34;96.50;101143.44;4918524;28;44771;-92
2022/07/29 02:49:10;;;;;;;;;7.20;7.20;;;;;19.34;97.52;101139.88;4936216;28;44745;-92
2022/07/29 02:52:01;;;;;;;;;6.75;6.75;;;;;19.30;98.01;101133.13;4946311;28;44808;-92
2022/07/29 02:54:44;;;;;;;;;9.75;7.25;;;;;19.28;97.85;101127.88;4932596;28;45389;-93
2022/07/29 02:57:20;;;;;;;;;8.40;8.40;;;;;19.31;97.26;101140.19;4936679;28;44623;-93
2022/07/29 02:59:51;;;;;;;;;8.40;8.40;;;;;19.28;97.59;101133.25;4936991;28;44613;-92
2022/07/29 03:02:17;;;;;;;;;7.75;7.75;;;;;19.27;98.49;101137.78;4955094;28;45010;-92
2022/07/29 03:04:44;;;;;;;;;6.50;6.50;;;;;19.25;98.34;101138.97;4946327;28;45273;-91
2022/07/29 03:16:19;;;;;;;;;8.25;8.25;;;;;19.17;100.00;101145.06;5114538;23;45213;-92
2022/07/29 03:18:46;;;;;;;;;7.40;7.40;;;;;19.13;100.00;101140.13;4920292;29;44685;-93
2022/07/29 03:21:12;;;;;;;;;9.50;7.75;;;;;19.16;100.00;101143.38;4905066;29;44682;-93
2022/07/29 03:23:44;;;;;;;;;11.25;8.50;;;;;19.19;100.00;101148.44;4901158;29;44924;-92
2022/07/29 03:26:10;;;;;;;;;9.50;9.00;;;;;19.21;100.00;101148.31;4898486;29;45290;-91
2022/07/29 03:28:36;;;;;;;;;10.50;9.25;;;;;19.29;100.00;101158.34;4916148;29;44632;-92
2022/07/29 03:34:55;;;;;;;;;8.75;8.75;;;;;19.31;99.63;101148.28;4921725;28;44786;-91
2022/07/29 03:37:44;;;;;;;;;8.25;8.25;;;;;19.24;99.86;101142.63;4892200;29;44999;-92
2022/07/29 03:47:42;;;;;;;;;9.50;9.50;;;;;19.16;100.00;101150.63;4925995;28;44823;-93
2022/07/29 03:50:14;;;;;;;;;9.75;9.00;;;;;19.12;100.00;101143.81;4885694;29;45514;-92
2022/07/29 03:52:41;;;;;;;;;9.20;7.80;;;;;19.17;100.00;101144.22;4903917;29;45399;-91
2022/07/29 03:55:08;;;;;;;;;11.00;8.50;;;;;19.18;100.00;101151.31;4901571;29;44743;-91
2022/07/29 03:57:37;;;;;;;;;6.50;6.50;;;;;19.16;100.00;101154.16;4896090;29;44903;-93
2022/07/29 04:00:06;;;;;;;;;11.25;8.25;;;;;19.21;100.00;101161.78;4896148;29;45226;-92
2022/07/29 04:02:34;;;;;;;;;9.60;8.60;;;;;19.21;100.00;101151.03;4912615;29;44735;-92
2022/07/29 04:05:00;;;;;;;;;12.00;7.00;;;;;19.22;100.00;101161.63;4895700;29;44672;-92
2022/07/29 04:07:26;;;;;;;;;8.50;8.50;;;;;19.23;100.00;101162.47;4909955;29;44928;-93
2022/07/29 04:09:52;;;;;;;;;9.75;7.50;;;;;19.20;100.00;101169.03;4893670;29;46829;-93
2022/07/29 04:12:17;;;;;;;;;10.00;8.00;;;;;19.22;100.00;101168.88;4894206;29;44652;-92
2022/07/29 04:14:44;;;;;;;;;7.50;7.50;;;;;19.21;100.00;101157.25;4893002;29;45252;-93
2022/07/29 04:17:09;;;;;;;;;12.75;7.75;;;;;19.26;100.00;101168.44;4908949;28;44866;-93
2022/07/29 04:19:35;;;;;;;;;7.50;7.50;;;;;19.29;100.00;101169.13;4914729;28;45369;-93
2022/07/29 04:22:02;;;;;;;;;7.50;7.25;;;;;19.31;100.00;101167.13;4911112;28;44872;-93
2022/07/29 04:24:29;;;;;;;;;7.50;7.50;;;;;19.36;100.00;101164.84;4913253;28;44768;-93
2022/07/29 04:26:55;;;;;;;;;10.25;7.75;;;;;19.40;99.14;101163.56;4937515;28;44930;-93
2022/07/29 04:29:22;;;;;;;;;7.25;7.25;;;;;19.41;99.13;101168.78;4926479;28;46522;-92
2022/07/29 04:31:48;;;;;;;;;9.00;8.40;;;;;19.48;98.92;101169.88;4914511;28;44546;-93
2022/07/29 04:34:14;;;;;;;;;9.50;6.75;;;;;19.54;98.15;101176.53;4911010;28;44646;-91
2022/07/29 04:36:40;;;;;;;;;9.75;9.25;;;;;19.61;97.88;101174.94;4921407;28;45020;-92
2022/07/29 04:39:07;;;;;;;;;6.75;6.75;;;;;19.71;97.69;101175.72;4920406;28;45520;-93
2022/07/29 04:41:33;;;;;;;;;6.20;6.20;;;;;19.81;95.91;101175.66;4920640;28;44837;-93
2022/07/29 04:44:04;;;;;;;;;6.60;6.60;;;;;19.92;96.04;101180.00;4932533;28;44857;-94
2022/07/29 04:46:31;;;;;;;;;7.75;7.00;;;;;20.04;95.71;101186.88;4929972;28;45467;-93
2022/07/29 04:48:56;;;;;;;;;10.50;9.25;;;;;20.15;95.70;101180.41;4916214;28;45349;-93
2022/07/29 04:51:22;;;;;;;;;9.00;7.50;;;;;20.23;97.24;101175.94;4921095;28;44800;-93
2022/07/29 04:53:50;;;;;;;;;8.60;7.60;;;;;20.40;95.91;101187.72;4922540;28;44804;-93
2022/07/29 04:56:16;;;;;;;;;9.00;8.75;;;;;20.56;96.47;101187.03;4932475;28;44821;-93
2022/07/29 04:58:43;;;;;;;;;11.25;7.75;;;;;20.71;94.93;101180.06;4931474;28;45148;-93
2022/07/29 05:01:08;;;;;;;;;9.40;9.40;;;;;20.97;95.60;101182.75;4930354;28;44567;-92
2022/07/29 05:03:34;;;;;;;;;10.00;9.00;;;;;21.20;94.44;101185.78;4922295;28;44597;-94
2022/07/29 05:06:02;;;;;;;;;9.50;8.50;;;;;21.42;95.59;101181.72;4904524;28;44886;-93
2022/07/29 05:08:27;;;;;;;;;10.60;9.00;;;;;21.67;96.46;101179.09;4914829;28;45229;-93
2022/07/29 05:10:53;;;;;;;;;9.20;9.20;;;;;21.88;97.77;101174.06;4930904;28;44777;-92
2022/07/29 05:13:21;;;;;;;;;9.00;9.00;;;;;22.09;96.87;101184.41;4910963;28;44741;-93
2022/07/29 05:15:48;;;;;;;;;13.75;10.75;;;;;22.36;95.59;101174.31;4924790;28;44822;-94
2022/07/29 05:18:14;;;;;;;;;8.00;8.00;;;;;22.58;93.79;101176.38;4907731;29;45346;-94
2022/07/29 05:20:41;;;;;;;;;13.75;10.75;;;;;22.82;90.32;101170.03;4875443;29;44817;-94
2022/07/29 05:23:06;;;;;;;;;11.60;10.20;;;;;23.03;91.26;101177.69;4892495;29;44888;-95
2022/07/29 05:25:32;;;;;;;;;10.25;9.00;;;;;23.19;87.25;101176.78;4866472;29;44834;-94
2022/07/29 05:27:58;;;;;;;;;9.25;9.25;;;;;23.12;85.47;101181.22;4881617;29;45343;-94
2022/07/29 05:30:24;;;;;;;;;10.00;8.75;;;;;23.07;86.38;101187.16;4892821;29;44747;-93
2022/07/29 05:32:50;;;;;;;;;11.40;9.80;;;;;23.06;86.35;101188.16;4882538;29;44937;-94
2022/07/29 05:35:15;;;;;;;;;10.50;9.00;;;;;22.89;87.22;101179.22;4890301;29;44884;-93
2022/07/29 05:37:43;;;;;;;;;13.75;10.75;;;;;22.83;88.90;101191.56;4892409;29;45176;-94
2022/07/29 05:40:10;;;;;;;;;12.00;9.40;;;;;22.70;89.86;101182.28;4893292;29;44631;-93
2022/07/29 05:42:35;;;;;;;;;12.60;9.20;;;;;22.40;91.76;101179.25;4892672;28;44837;-93
2022/07/29 05:45:01;;;;;;;;;13.50;9.75;;;;;22.25;92.37;101181.78;4893893;29;45008;-93
2022/07/29 05:47:27;;;;;;;;;13.25;11.50;;;;;22.13;93.29;101191.22;4902172;29;45140;-93
2022/07/29 05:49:53;;;;;;;;;15.00;12.25;;;;;22.07;93.45;101197.28;4908936;28;44721;-93
2022/07/29 05:52:24;;;;;;;;;9.60;8.40;;;;;22.04;94.21;101203.84;4892912;29;45122;-93
2022/07/29 05:54:51;;;;;;;;;13.50;11.50;;;;;21.91;94.52;101200.78;4902630;29;44859;-92
2022/07/29 05:57:18;;;;;;;;;10.75;9.50;;;;;21.86;95.41;101189.63;4883638;29;45389;-91
2022/07/29 05:59:43;;;;;;;;;12.40;11.00;;;;;21.86;95.43;101205.00;4885412;29;45132;-92
2022/07/29 06:02:13;;;;;;;;;10.50;9.50;;;;;21.84;95.82;101207.03;4900125;29;44700;-93
2022/07/29 06:04:39;;;;;;;;;13.75;10.25;;;;;21.87;94.76;101201.28;4900365;29;44833;-92
2022/07/29 06:07:05;;;;;;;;;8.75;8.75;;;;;21.82;94.87;101201.78;4898149;29;45134;-92
2022/07/29 06:09:32;;;;;;;;;10.00;10.00;;;;;21.79;94.49;101211.06;4917637;29;44768;-93
2022/07/29 06:15:19;;;;;;;;;9.75;9.75;;;;;21.86;93.78;101216.69;4917379;29;44731;-91
2022/07/29 06:17:45;;;;;;;;;10.50;10.25;;;;;21.92;91.25;101226.00;4915931;29;45130;-92
2022/07/29 06:20:12;;;;;;;;;10.25;10.25;;;;;21.95;92.30;101223.81;4899589;29;44733;-91
2022/07/29 06:22:37;;;;;;;;;10.20;9.20;;;;;21.96;91.30;101228.19;4924836;28;44750;-92
2022/07/29 06:25:06;;;;;;;;;9.25;9.00;;;;;21.97;91.81;101229.03;4926576;28;44849;-92
2022/07/29 06:27:38;;;;;;;;;9.75;8.50;;;;;22.10;90.31;101229.44;4903061;29;45137;-94
2022/07/29 06:30:17;;;;;;;;;8.00;8.00;;;;;22.24;89.13;101227.94;4925498;29;44763;-93
2022/07/29 06:32:47;;;;;;;;;8.40;7.60;;;;;22.31;88.43;101235.22;4923834;28;44584;-94
2022/07/29 06:35:24;;;;;;;;;8.00;7.50;;;;;22.40;87.97;101236.09;4918600;28;44770;-95
2022/07/29 06:37:56;;;;;;;;;8.50;8.25;;;;;22.50;89.03;101223.25;4898117;29;45200;-94
2022/07/29 06:43:09;;;;;;;;;12.80;11.20;;;;;22.69;86.25;101223.94;4927716;28;44762;-93
2022/07/29 06:45:35;;;;;;;;;10.75;10.00;;;;;22.83;85.77;101229.50;4926299;28;44919;-92
2022/07/29 06:48:00;;;;;;;;;12.75;9.25;;;;;22.93;85.21;101223.09;4927395;28;46481;-92
2022/07/29 06:50:28;;;;;;;;;6.40;6.40;;;;;23.10;84.51;101224.75;4920562;28;44778;-93
2022/07/29 06:52:53;;;;;;;;;9.20;8.80;;;;;23.38;83.69;101235.19;4917163;29;44649;-92
2022/07/29 06:55:19;;;;;;;;;8.25;8.25;;;;;23.52;83.73;101238.00;4920163;29;44868;-93
2022/07/29 06:57:46;;;;;;;;;8.00;8.00;;;;;23.60;81.45;101234.44;4920047;29;45272;-93
2022/07/29 07:00:12;;;;;;;;;9.20;7.80;;;;;23.81;82.27;101240.13;4914608;29;44761;-93
2022/07/29 07:02:39;;;;;;;;;10.40;9.00;;;;;24.04;79.94;101244.78;4913219;29;44653;-93
2022/07/29 07:05:08;;;;;;;;;10.00;9.25;;;;;24.11;79.84;101243.03;4916237;29;44897;-93
2022/07/29 07:07:34;;;;;;;;;11.80;10.00;;;;;24.39;78.41;101242.53;4914832;29;45022;-92
2022/07/29 07:09:59;;;;;;;;;9.60;9.20;;;;;24.56;77.99;101241.38;4903155;29;44785;-92
2022/07/29 07:12:26;;;;;;;;;7.00;6.75;;;;;24.73;76.12;101244.81;4916806;29;44744;-93
2022/07/29 07:14:52;;;;;;;;;12.00;9.75;;;;;24.85;77.23;101251.50;4911112;29;44827;-93
2022/07/29 07:17:17;;;;;;;;;6.25;6.25;;;;;24.80;74.88;101249.34;4913258;28;44970;-93
2022/07/29 07:19:45;;;;;;;;;9.75;8.50;;;;;24.63;75.10;101252.38;4896615;29;44748;-93
2022/07/29 07:22:11;;;;;;;;;10.40;9.40;;;;;24.85;74.17;101257.78;4892787;29;44698;-93
2022/07/29 07:24:36;;;;;;;;;8.00;8.00;;;;;24.94;74.18;101249.53;4896137;29;44956;-93
2022/07/29 07:27:02;;;;;;;;;7.75;7.50;;;;;24.94;72.10;101258.53;4895993;29;45302;-93
2022/07/29 07:29:28;;;;;;;;;7.25;7.25;;;;;24.69;72.84;101254.34;4896620;29;44612;-93
2022/07/29 07:31:54;;;;;;;;;9.80;9.80;;;;;24.75;72.49;101264.50;4896194;29;44679;-93
2022/07/29 07:34:20;;;;;;;;;8.40;8.40;;;;;24.84;72.23;101256.09;4879335;29;44859;-93
2022/07/29 07:36:45;;;;;;;;;9.00;6.75;;;;;24.99;71.73;101258.84;4911625;29;45349;-92
2022/07/29 07:39:11;;;;;;;;;10.00;8.00;;;;;24.99;71.22;101258.00;4896820;29;44785;-94
2022/07/29 07:41:36;;;;;;;;;9.25;7.75;;;;;25.08;71.62;101263.19;4882473;29;44853;-93
2022/07/29 07:44:03;;;;;;;;;15.20;14.40;;;;;25.27;72.32;101267.25;4913194;29;44969;-93
2022/07/29 07:46:28;;;;;;;;;9.25;7.75;;;;;25.30;69.22;101266.06;4899554;29;45575;-92
2022/07/29 07:48:54;;;;;;;;;8.50;8.50;;;;;25.25;68.95;101271.22;4919070;29;44690;-92
2022/07/29 07:51:20;;;;;;;;;10.00;8.00;;;;;25.39;69.74;101262.22;4917614;29;44678;-92
2022/07/29 07:53:49;;;;;;;;;13.75;8.75;;;;;25.36;68.30;101263.44;4909180;29;44901;-93
2022/07/29 07:56:16;;;;;;;;;10.80;9.80;;;;;25.50;68.31;101267.19;4911882;29;45357;-93
2022/07/29 07:58:41;;;;;;;;;10.20;8.80;;;;;25.38;68.37;101266.81;4896968;29;44798;-92
2022/07/29 08:01:08;;;;;;;;;10.50;10.50;;;;;25.13;67.55;101268.09;4898469;29;44673;-93
2022/07/29 08:03:34;;;;;;;;;9.25;8.50;;;;;24.95;69.11;101262.97;4898115;29;45687;-93
2022/07/29 08:05:59;;;;;;;;;7.25;6.25;;;;;25.16;67.86;101269.59;4916160;29;45340;-92
2022/07/29 08:08:24;;;;;;;;;7.00;5.25;;;;;25.15;63.38;101274.19;4900960;29;45192;-94
2022/07/29 08:10:53;;;;;;;;;8.25;8.25;;;;;25.24;65.80;101275.81;4919363;29;44608;-93
2022/07/29 08:13:20;;;;;;;;;8.00;8.00;;;;;25.23;65.36;101270.53;4908092;29;44842;-91
2022/07/29 08:15:57;;;;;;;;;9.60;9.20;;;;;25.31;63.51;101271.31;4905095;29;46773;-92
2022/07/29 08:18:27;;;;;;;;;10.00;9.20;;;;;25.55;63.96;101275.63;4917552;29;44738;-92
2022/07/29 08:20:53;;;;;;;;;9.60;7.40;;;;;25.51;61.65;101281.63;4915876;29;44624;-93
2022/07/29 08:23:20;;;;;;;;;7.00;7.00;;;;;25.47;61.25;101283.88;4921132;29;44800;-92
2022/07/29 08:25:46;;;;;;;;;7.60;6.20;;;;;25.64;61.32;101276.38;4920380;29;45289;-92
2022/07/29 08:28:11;;;;;;;;;11.50;7.50;;;;;25.83;61.63;101277.72;4884046;29;44796;-93
2022/07/29 08:30:38;;;;;;;;;7.00;7.00;;;;;25.89;59.77;101276.94;4917085;29;44756;-92
2022/07/29 08:33:04;;;;;;;;;11.00;7.00;;;;;25.92;57.65;101276.59;4902314;29;44877;-92
2022/07/29 08:35:31;;;;;;;;;5.80;5.00;;;;;26.05;60.09;101276.72;4903817;29;45557;-93
2022/07/29 08:37:57;;;;;;;;;5.80;5.80;;;;;26.20;55.25;101284.84;4900747;29;44684;-93
2022/07/29 08:40:24;;;;;;;;;6.50;6.50;;;;;26.14;55.99;101282.91;4887320;29;44643;-93
2022/07/29 08:42:52;;;;;;;;;9.60;6.00;;;;;26.20;56.30;101270.41;4902676;29;44838;-94
2022/07/29 08:45:17;;;;;;;;;10.00;6.40;;;;;26.29;57.86;101270.09;4903960;29;45397;-92
2022/07/29 08:47:44;;;;;;;;;7.25;6.25;;;;;26.62;56.71;101283.25;4887924;29;44758;-94
2022/07/29 08:50:11;;;;;;;;;5.00;5.00;;;;;26.83;54.99;101280.50;4902545;29;44727;-93
2022/07/29 08:52:46;;;;;;;;;7.80;6.40;;;;;26.85;55.37;101283.06;4903538;29;44823;-93
2022/07/29 08:55:18;;;;;;;;;5.40;5.00;;;;;27.03;53.97;101271.63;4906533;29;45019;-93
2022/07/29 08:57:45;;;;;;;;;6.80;6.40;;;;;26.84;54.20;101279.50;4926320;29;44788;-93
2022/07/29 09:00:12;;;;;;;;;6.60;5.60;;;;;26.79;53.84;101270.22;4911986;29;44658;-93
2022/07/29 09:02:51;;;;;;;;;8.80;6.80;;;;;26.84;54.83;101279.50;4926786;28;44830;-93
2022/07/29 09:05:17;;;;;;;;;6.00;5.00;;;;;26.85;54.74;101280.31;4890245;29;46737;-93
2022/07/29 09:07:44;;;;;;;;;5.00;5.00;;;;;26.62;53.93;101273.19;4916646;29;44766;-93
2022/07/29 09:10:10;;;;;;;;;5.40;5.40;;;;;26.43;53.27;101273.00;4898241;29;44676;-93
2022/07/29 09:12:35;;;;;;;;;4.50;4.50;;;;;26.12;53.32;101274.09;4922114;29;44901;-93
2022/07/29 09:15:02;;;;;;;;;5.20;5.20;;;;;26.24;53.81;101274.44;4923687;29;45033;-92
2022/07/29 09:17:47;;;;;;;;;7.00;3.00;;;;;26.31;55.42;101267.19;4923257;28;44702;-94
2022/07/29 09:23:20;;;;;;;;;6.00;5.00;;;;;26.46;54.62;101276.19;4930494;28;44706;-94
2022/07/29 09:25:46;;;;;;;;;7.00;5.60;;;;;26.34;54.17;101275.78;4926662;28;45258;-92
2022/07/29 09:28:25;;;;;;;;;7.40;7.40;;;;;26.39;55.25;101273.34;4919142;28;44909;-94
2022/07/29 09:30:58;;;;;;;;;3.80;3.80;;;;;26.49;55.89;101264.03;4916526;28;44636;-94
2022/07/29 09:33:36;;;;;;;;;7.80;5.00;;;;;26.87;56.92;101273.63;4912023;28;44744;-95
2022/07/29 09:36:11;;;;;;;;;6.00;6.00;;;;;27.07;53.42;101262.03;4895726;29;45268;-94
2022/07/29 09:38:37;;;;;;;;;6.00;5.20;;;;;26.99;51.66;101268.50;4912734;29;44679;-93
2022/07/29 09:41:08;;;;;;;;;4.25;4.25;;;;;27.02;51.68;101272.69;4917852;29;44737;-94
2022/07/29 09:43:35;;;;;;;;;4.60;4.60;;;;;27.19;52.12;101273.28;4923272;28;44754;-92
2022/07/29 09:46:24;;;;;;;;;4.40;4.40;;;;;27.29;52.36;101269.16;4925901;28;45146;-92
2022/07/29 09:49:13;;;;;;;;;7.80;5.40;;;;;27.12;51.37;101271.31;4914449;29;44812;-92
2022/07/29 09:51:41;;;;;;;;;3.80;3.80;;;;;26.93;51.15;101280.16;4925036;29;44679;-92
2022/07/29 09:56:44;;;;;;;;;13.60;9.80;;;;;27.18;51.91;101267.00;5495735;23;45925;-93
2022/07/29 09:59:11;;;;;;;;;8.50;5.25;;;;;27.44;52.62;101269.03;4947572;28;44770;-93
2022/07/29 10:05:06;;;;;;;;;6.20;5.00;;;;;27.62;51.78;101261.16;4955466;23;45056;-92
2022/07/29 10:07:51;;;;;;;;;4.00;4.00;;;;;27.45;50.99;101265.25;4942458;28;45368;-93
2022/07/29 10:10:26;;;;;;;;;4.00;4.00;;;;;27.35;50.23;101268.34;4942534;28;44575;-93
2022/07/29 10:13:02;;;;;;;;;4.80;3.60;;;;;27.12;50.66;101271.31;4924565;28;44620;-94
2022/07/29 10:15:37;;;;;;;;;5.00;5.00;;;;;27.02;51.50;101267.22;4942134;28;44766;-92
2022/07/29 10:18:03;;;;;;;;;5.40;4.80;;;;;27.07;51.51;101264.75;4906052;28;46877;-93
2022/07/29 10:20:28;;;;;;;;;5.50;4.50;;;;;27.13;50.55;101272.19;4940203;28;44730;-93
2022/07/29 10:22:55;;;;;;;;;5.50;4.00;;;;;27.39;51.14;101266.06;4923597;28;44753;-94
2022/07/29 10:25:23;;;;;;;;;5.00;5.00;;;;;27.50;50.13;101279.16;4922942;28;44807;-94
2022/07/29 10:27:51;;;;;;;;;4.20;4.20;;;;;27.22;51.09;101272.88;4924217;28;45269;-94
2022/07/29 10:30:19;;;;;;;;;7.00;5.00;;;;;27.23;51.46;101274.59;4921546;28;44668;-94
2022/07/29 10:33:06;;;;;;;;;7.40;5.80;;;;;27.34;52.17;101271.28;4920360;28;44768;-95
2022/07/29 10:35:39;;;;;;;;;3.60;3.60;;;;;27.40;51.20;101278.66;4934940;28;44781;-94
2022/07/29 10:38:39;;;;;;;;;5.00;5.00;;;;;27.53;50.86;101275.19;4935095;28;45047;-93
2022/07/29 10:44:27;;;;;;;;;4.40;3.80;;;;;27.47;50.51;101287.75;4912764;28;44775;-92
2022/07/29 10:46:54;;;;;;;;;6.60;5.40;;;;;27.59;51.20;101279.84;4879864;29;44949;-92
2022/07/29 10:49:22;;;;;;;;;5.20;5.20;;;;;27.36;51.15;101280.09;4899093;29;45283;-93
2022/07/29 10:52:09;;;;;;;;;9.00;8.00;;;;;27.55;51.22;101276.66;4919744;29;44608;-93
2022/07/29 10:54:42;;;;;;;;;4.40;3.20;;;;;27.64;49.79;101274.59;4918794;29;44769;-93
2022/07/29 10:57:26;;;;;;;;;3.60;3.60;;;;;27.45;50.21;101280.78;4886648;29;44902;-89
2022/07/29 11:00:00;;;;;;;;;5.40;4.80;;;;;27.65;50.54;101276.28;4892353;29;46969;-91
2022/07/29 11:02:57;;;;;;;;;7.20;5.20;;;;;28.02;49.85;101275.03;4892617;29;44693;-91
2022/07/29 11:05:24;;;;;;;;;5.40;5.40;;;;;28.14;49.39;101273.41;4834399;29;44790;-90
2022/07/29 11:08:17;;;;;;;;;7.60;5.00;;;;;28.42;48.15;101270.53;4850942;29;44923;-92
2022/07/29 11:10:42;;;;;;;;;7.20;6.00;;;;;28.57;47.69;101273.09;4848233;29;45507;-91
2022/07/29 11:13:08;;;;;;;;;5.75;4.00;;;;;28.80;47.87;101266.38;4831578;29;44722;-91
2022/07/29 11:16:06;;;;;;;;;5.25;5.25;;;;;28.86;46.18;101269.13;4848552;29;44778;-90
2022/07/29 11:18:31;;;;;;;;;6.20;5.00;;;;;28.03;47.14;101275.88;4836746;29;44941;-90
2022/07/29 11:20:57;;;;;;;;;3.25;3.25;;;;;28.12;48.00;101269.19;4863953;29;44927;-89
2022/07/29 11:23:31;;;;;;;;;5.50;5.50;;;;;28.14;47.64;101270.69;4844191;29;44770;-89
2022/07/29 11:26:20;;;;;;;;;5.00;5.00;;;;;27.97;47.89;101280.25;4858290;29;44788;-89
2022/07/29 11:29:23;;;;;;;;;5.60;4.80;;;;;28.07;49.26;101277.16;4852944;29;44953;-89
2022/07/29 11:31:55;;;;;;;;;6.00;6.00;;;;;28.50;47.13;101277.72;4818198;29;45115;-89
2022/07/29 11:34:35;;;;;;;;;5.40;5.40;;;;;28.70;46.06;101288.69;4822403;29;44745;-90
2022/07/29 11:37:06;;;;;;;;;5.60;5.60;;;;;28.53;46.09;101277.31;4833027;29;44837;-90
2022/07/29 11:39:34;;;;;;;;;4.20;3.20;;;;;28.37;46.36;101278.53;4828500;29;44754;-91
2022/07/29 11:42:24;;;;;;;;;6.80;5.00;;;;;28.31;46.75;101268.38;4821191;29;45336;-91
2022/07/29 11:45:20;;;;;;;;;5.00;5.00;;;;;28.52;46.95;101270.13;4825732;29;44910;-94
2022/07/29 11:47:45;;;;;;;;;5.20;5.00;;;;;28.72;46.57;101272.06;4832558;29;44871;-94
2022/07/29 11:50:36;;;;;;;;;6.40;3.40;;;;;28.88;45.86;101277.97;4832652;29;44833;-92
2022/07/29 11:58:12;;;;;;;;;5.40;4.60;;;;;28.60;46.63;101271.84;4937949;23;45301;-89
2022/07/29 12:00:42;;;;;;;;;5.00;5.00;;;;;28.77;46.29;101266.78;4913875;29;45284;-90
2022/07/29 12:03:09;;;;;;;;;5.80;4.60;;;;;28.95;45.91;101278.00;4893758;29;47078;-89
2022/07/29 12:05:44;;;;;;;;;3.80;3.80;;;;;29.24;45.50;101273.97;4892129;29;44772;-90
2022/07/29 12:08:19;;;;;;;;;5.40;4.20;;;;;29.33;45.41;101267.22;4913013;29;44776;-94
2022/07/29 12:10:46;;;;;;;;;6.00;6.00;;;;;29.31;44.46;101268.50;4907022;29;44963;-94
2022/07/29 12:13:12;;;;;;;;;3.20;3.20;;;;;29.32;45.15;101254.59;4905056;29;45124;-90
2022/07/29 12:15:40;;;;;;;;;4.00;4.00;;;;;29.55;44.32;101267.84;4929007;28;44744;-93
2022/07/29 12:18:18;;;;;;;;;4.60;4.60;;;;;29.69;44.32;101274.13;4906855;29;44676;-94
2022/07/29 12:20:45;;;;;;;;;5.40;5.00;;;;;29.39;43.17;101271.84;4925224;29;44873;-94
2022/07/29 12:23:22;;;;;;;;;5.40;5.40;;;;;29.90;43.60;101265.59;4987122;23;45292;-94
2022/07/29 12:25:48;;;;;;;;;4.20;4.20;;;;;29.81;42.52;101260.59;4906817;29;44664;-94
2022/07/29 12:28:18;;;;;;;;;6.00;4.00;;;;;30.11;43.05;101269.09;4925682;29;44588;-94
2022/07/29 12:30:50;;;;;;;;;3.20;3.20;;;;;30.35;43.00;101260.13;4907441;29;44962;-93
2022/07/29 12:35:54;;;;;;;;;6.20;5.40;;;;;29.99;42.18;101262.63;5278281;23;45163;-90
2022/07/29 12:38:20;;;;;;;;;5.00;4.40;;;;;30.30;41.16;101272.81;4924903;28;44823;-90
2022/07/29 12:40:50;;;;;;;;;6.20;5.00;;;;;30.34;41.82;101252.97;4928968;28;44823;-91
2022/07/29 12:43:19;;;;;;;;;5.80;4.20;;;;;30.62;40.02;101260.78;4933682;28;45248;-94
2022/07/29 12:45:59;;;;;;;;;4.00;3.00;;;;;30.79;39.95;101257.50;4939205;28;44734;-94
2022/07/29 12:48:56;;;;;;;;;5.60;5.60;;;;;30.73;39.52;101259.25;4941772;28;44754;-95
2022/07/29 12:51:32;;;;;;;;;5.00;5.00;;;;;30.85;38.97;101262.09;4927651;28;44937;-94
2022/07/29 12:54:11;;;;;;;;;5.20;5.20;;;;;30.69;40.24;101260.72;4936748;28;45034;-94
2022/07/29 12:56:42;;;;;;;;;4.00;4.00;;;;;30.50;40.51;101253.47;4935550;28;44762;-94
2022/07/29 12:59:20;;;;;;;;;3.40;3.40;;;;;30.13;41.16;101251.41;4941558;28;44621;-93
2022/07/29 13:05:11;;;;;;;;;3.80;3.40;;;;;29.37;41.19;101260.28;4941807;28;44937;-93